createdAt,value
2022-07-25T00:01:09.779Z,20.06
2022-07-25T00:03:51.842Z,20.01
2022-07-25T00:07:00.244Z,20.18
2022-07-25T00:10:00.445Z,20.17
2022-07-25T00:12:41.231Z,20.37
2022-07-25T00:15:24.901Z,20.57
2022-07-25T00:18:06.785Z,20.60
2022-07-25T00:20:46.427Z,20.64
2022-07-25T00:23:28.226Z,20.70
2022-07-25T00:26:10.713Z,20.82
2022-07-25T00:28:50.316Z,20.81
2022-07-25T00:31:30.141Z,20.85
2022-07-25T00:34:10.903Z,20.84
2022-07-25T00:36:51.270Z,20.89
2022-07-25T00:39:35.753Z,20.88
2022-07-25T00:42:17.348Z,20.91
2022-07-25T00:45:01.002Z,21.01
2022-07-25T00:47:40.724Z,21.02
2022-07-25T00:50:22.772Z,21.09
2022-07-25T00:53:16.353Z,21.10
2022-07-25T00:55:56.133Z,21.15
2022-07-25T00:58:38.062Z,21.16
2022-07-25T01:01:17.555Z,21.18
2022-07-25T01:03:57.266Z,21.22
2022-07-25T01:06:57.771Z,21.27
2022-07-25T01:09:39.615Z,21.28
2022-07-25T01:12:21.869Z,21.27
2022-07-25T01:15:08.085Z,21.30
2022-07-25T01:17:47.155Z,21.34
2022-07-25T01:20:28.026Z,21.35
2022-07-25T01:23:07.917Z,21.33
2022-07-25T01:25:50.355Z,21.31
2022-07-25T01:28:33.263Z,21.31
2022-07-25T01:31:35.178Z,21.26
2022-07-25T01:34:35.063Z,21.28
2022-07-25T01:37:15.680Z,21.26
2022-07-25T01:39:58.478Z,21.21
2022-07-25T01:42:41.436Z,21.20
2022-07-25T01:45:23.662Z,21.19
2022-07-25T01:48:03.706Z,21.19
2022-07-25T01:50:43.604Z,21.17
2022-07-25T01:53:24.356Z,21.05
2022-07-25T01:56:07.563Z,21.09
2022-07-25T01:58:49.266Z,21.03
2022-07-25T02:01:29.185Z,21.03
2022-07-25T02:04:22.451Z,20.98
2022-07-25T02:07:02.341Z,21.04
2022-07-25T02:09:44.658Z,21.00
2022-07-25T02:12:23.683Z,21.08
2022-07-25T02:15:03.127Z,21.10
2022-07-25T02:17:45.253Z,21.03
2022-07-25T02:20:29.069Z,21.07
2022-07-25T02:23:11.027Z,21.02
2022-07-25T02:26:02.867Z,21.01
2022-07-25T02:28:42.338Z,20.98
2022-07-25T02:31:20.591Z,20.92
2022-07-25T02:34:05.680Z,20.92
2022-07-25T02:36:48.335Z,20.86
2022-07-25T02:39:48.372Z,20.77
2022-07-25T02:42:28.224Z,20.70
2022-07-25T02:45:09.345Z,20.69
2022-07-25T02:47:49.453Z,20.62
2022-07-25T02:50:29.557Z,20.54
2022-07-25T02:53:09.029Z,20.46
2022-07-25T02:55:49.172Z,20.39
2022-07-25T02:58:28.608Z,20.36
2022-07-25T03:01:10.917Z,20.30
2022-07-25T03:03:51.638Z,20.22
2022-07-25T03:06:31.351Z,20.18
2022-07-25T03:09:11.127Z,20.13
2022-07-25T03:12:10.708Z,20.12
2022-07-25T03:14:50.502Z,20.09
2022-07-25T03:17:48.189Z,20.02
2022-07-25T03:20:27.692Z,19.97
2022-07-25T03:23:10.044Z,19.93
2022-07-25T03:25:53.614Z,19.86
2022-07-25T03:28:37.039Z,19.83
2022-07-25T03:31:20.313Z,19.79
2022-07-25T03:34:01.203Z,19.73
2022-07-25T03:36:45.117Z,19.70
2022-07-25T03:39:35.169Z,19.66
2022-07-25T03:42:15.151Z,19.60
2022-07-25T03:44:56.706Z,19.55
2022-07-25T03:47:34.936Z,19.55
2022-07-25T03:50:14.388Z,19.54
2022-07-25T03:52:54.196Z,19.52
2022-07-25T03:55:43.267Z,19.48
2022-07-25T03:58:25.289Z,19.45
2022-07-25T04:01:04.891Z,19.45
2022-07-25T04:03:47.673Z,19.41
2022-07-25T04:06:27.698Z,19.40
2022-07-25T04:09:11.221Z,19.40
2022-07-25T04:11:57.822Z,19.36
2022-07-25T04:14:58.387Z,19.31
2022-07-25T04:17:52.567Z,19.29
2022-07-25T04:20:34.326Z,19.26
2022-07-25T04:23:12.751Z,19.26
2022-07-25T04:26:33.652Z,19.26
2022-07-25T04:29:19.167Z,19.23
2022-07-25T04:32:21.363Z,19.23
2022-07-25T04:35:06.613Z,19.28
2022-07-25T04:37:48.883Z,19.29
2022-07-25T04:40:34.945Z,19.29
2022-07-25T04:43:14.930Z,19.36
2022-07-25T04:45:56.788Z,19.37
2022-07-25T04:48:37.907Z,19.39
2022-07-25T04:51:21.537Z,19.47
2022-07-25T04:54:15.445Z,19.54
2022-07-25T04:56:57.712Z,19.58
2022-07-25T04:59:45.202Z,19.62
2022-07-25T05:02:26.778Z,19.69
2022-07-25T05:05:21.576Z,19.75
2022-07-25T05:08:03.800Z,19.86
2022-07-25T05:10:43.151Z,20.00
2022-07-25T05:13:22.910Z,20.16
2022-07-25T05:16:06.417Z,20.33
2022-07-25T05:18:53.021Z,20.44
2022-07-25T05:21:36.683Z,20.63
2022-07-25T05:24:19.993Z,20.83
2022-07-25T05:26:59.702Z,20.97
2022-07-25T05:29:40.938Z,21.12
2022-07-25T05:32:20.785Z,21.27
2022-07-25T05:35:02.786Z,21.41
2022-07-25T05:37:43.556Z,21.60
2022-07-25T05:40:24.229Z,21.91
2022-07-25T05:43:05.354Z,22.01
2022-07-25T05:45:47.257Z,22.17
2022-07-25T05:48:27.855Z,22.33
2022-07-25T05:51:13.246Z,22.60
2022-07-25T05:53:58.080Z,22.76
2022-07-25T05:56:38.245Z,22.88
2022-07-25T05:59:26.779Z,23.12
2022-07-25T06:02:07.510Z,23.24
2022-07-25T06:04:58.126Z,23.39
2022-07-25T06:07:38.551Z,23.51
2022-07-25T06:10:17.136Z,23.63
2022-07-25T06:13:00.050Z,23.79
2022-07-25T06:15:38.261Z,23.95
2022-07-25T06:18:20.779Z,24.16
2022-07-25T06:21:02.299Z,24.30
2022-07-25T06:23:44.139Z,24.51
2022-07-25T06:26:24.732Z,24.75
2022-07-25T06:29:03.776Z,25.02
2022-07-25T06:31:48.309Z,25.37
2022-07-25T06:34:49.488Z,25.82
2022-07-25T06:37:48.336Z,26.07
2022-07-25T06:40:32.616Z,26.28
2022-07-25T06:43:10.888Z,26.39
2022-07-25T06:45:50.419Z,26.63
2022-07-25T06:48:32.940Z,26.85
2022-07-25T06:51:14.304Z,27.12
2022-07-25T06:54:15.675Z,27.33
2022-07-25T06:56:55.393Z,27.49
2022-07-25T07:00:00.230Z,27.75
2022-07-25T07:03:01.138Z,27.96
2022-07-25T07:05:41.334Z,28.32
2022-07-25T07:08:24.851Z,28.64
2022-07-25T07:11:13.357Z,28.91
2022-07-25T07:13:51.994Z,29.22
2022-07-25T07:16:34.583Z,29.52
2022-07-25T07:19:15.456Z,29.51
2022-07-25T07:22:03.231Z,29.55
2022-07-25T07:24:48.074Z,29.60
2022-07-25T07:27:28.248Z,29.83
2022-07-25T07:30:11.693Z,29.83
2022-07-25T07:32:51.066Z,30.01
2022-07-25T07:35:31.284Z,30.17
2022-07-25T07:38:18.291Z,30.26
2022-07-25T07:40:58.862Z,30.44
2022-07-25T07:43:40.705Z,30.50
2022-07-25T07:47:03.674Z,30.64
2022-07-25T07:49:59.729Z,30.43
2022-07-25T07:52:46.304Z,30.70
2022-07-25T07:55:43.934Z,30.79
2022-07-25T07:58:25.393Z,30.93
2022-07-25T08:01:05.953Z,31.05
2022-07-25T08:03:47.071Z,31.22
2022-07-25T08:06:28.416Z,31.57
2022-07-25T08:09:17.585Z,31.78
2022-07-25T08:11:57.033Z,32.09
2022-07-25T08:15:20.385Z,32.40
2022-07-25T08:18:17.943Z,32.23
2022-07-25T08:21:09.830Z,32.28
2022-07-25T08:24:10.402Z,32.82
2022-07-25T08:27:34.578Z,32.93
2022-07-25T08:30:37.173Z,32.83
2022-07-25T08:33:29.653Z,33.11
2022-07-25T08:36:16.825Z,32.98
2022-07-25T08:39:04.010Z,32.83
2022-07-25T08:41:50.896Z,33.40
2022-07-25T08:44:45.764Z,33.53
2022-07-25T08:48:08.067Z,33.62
2022-07-25T08:50:59.364Z,33.79
2022-07-25T08:53:55.504Z,33.96
2022-07-25T08:56:47.493Z,33.41
2022-07-25T08:59:37.721Z,33.78
2022-07-25T09:02:19.905Z,34.06
2022-07-25T09:05:04.698Z,34.18
2022-07-25T09:08:14.655Z,34.40
2022-07-25T09:10:55.341Z,34.70
2022-07-25T09:14:05.176Z,34.84
2022-07-25T09:16:48.578Z,35.27
2022-07-25T09:19:39.151Z,35.46
2022-07-25T09:23:34.079Z,35.39
2022-07-25T09:26:49.245Z,35.91
2022-07-25T09:29:37.627Z,35.45
2022-07-25T09:32:33.352Z,35.55
2022-07-25T09:35:12.913Z,35.91
2022-07-25T09:38:16.079Z,36.37
2022-07-25T09:41:33.297Z,36.58
2022-07-25T09:44:26.990Z,36.78
2022-07-25T09:47:26.486Z,36.76
2022-07-25T09:50:15.182Z,37.21
2022-07-25T09:53:01.912Z,37.08
2022-07-25T09:55:50.472Z,37.34
2022-07-25T09:58:58.972Z,37.49
2022-07-25T10:02:14.534Z,37.18
2022-07-25T10:05:19.241Z,37.04
2022-07-25T10:08:11.828Z,36.82
2022-07-25T10:10:50.146Z,36.71
2022-07-25T10:13:34.970Z,36.87
2022-07-25T10:16:19.824Z,37.28
2022-07-25T10:19:00.292Z,37.56
2022-07-25T10:21:42.337Z,36.88
2022-07-25T10:24:33.879Z,36.88
2022-07-25T10:27:15.981Z,36.67
2022-07-25T10:30:01.491Z,36.91
2022-07-25T10:32:50.528Z,37.15
2022-07-25T10:35:33.995Z,36.91
2022-07-25T10:38:35.317Z,36.94
2022-07-25T10:41:16.781Z,36.05
2022-07-25T10:43:58.698Z,36.81
2022-07-25T10:46:43.936Z,37.15
2022-07-25T10:49:31.864Z,37.37
2022-07-25T10:52:17.565Z,37.60
2022-07-25T10:55:01.850Z,37.84
2022-07-25T10:58:07.795Z,37.73
2022-07-25T11:00:46.056Z,38.20
2022-07-25T11:03:27.100Z,37.95
2022-07-25T11:06:07.809Z,37.76
2022-07-25T11:08:57.608Z,37.69
2022-07-25T11:11:40.455Z,37.28
2022-07-25T11:14:23.578Z,36.97
2022-07-25T11:17:15.922Z,36.93
2022-07-25T11:20:17.729Z,36.90
2022-07-25T11:22:57.435Z,36.71
2022-07-25T11:25:42.132Z,36.61
2022-07-25T11:28:23.851Z,36.42
2022-07-25T11:31:05.661Z,36.42
2022-07-25T11:33:49.743Z,36.48
2022-07-25T11:36:28.110Z,36.59
2022-07-25T11:39:06.542Z,36.29
2022-07-25T11:41:59.544Z,36.69
2022-07-25T11:44:47.139Z,36.66
2022-07-25T11:47:34.463Z,36.66
2022-07-25T11:50:16.013Z,37.06
2022-07-25T11:53:01.199Z,37.27
2022-07-25T11:55:42.831Z,37.44
2022-07-25T11:58:24.484Z,37.39
2022-07-25T12:01:12.657Z,37.40
2022-07-25T12:03:52.210Z,37.28
2022-07-25T12:06:31.952Z,37.00
2022-07-25T12:09:18.910Z,37.03
2022-07-25T12:12:05.450Z,36.87
2022-07-25T12:14:47.864Z,36.68
2022-07-25T12:17:29.203Z,36.67
2022-07-25T12:20:14.007Z,36.50
2022-07-25T12:22:56.700Z,36.36
2022-07-25T12:25:40.811Z,36.18
2022-07-25T12:28:21.660Z,35.77
2022-07-25T12:31:02.281Z,35.63
2022-07-25T12:33:42.346Z,35.42
2022-07-25T12:36:24.937Z,35.28
2022-07-25T12:39:05.223Z,35.09
2022-07-25T12:41:44.695Z,34.82
2022-07-25T12:44:24.488Z,34.60
2022-07-25T12:47:04.410Z,34.31
2022-07-25T12:49:46.122Z,34.07
2022-07-25T12:52:25.525Z,34.06
2022-07-25T12:55:08.991Z,33.94
2022-07-25T12:57:48.353Z,33.80
2022-07-25T13:00:28.661Z,33.78
2022-07-25T13:03:08.250Z,33.61
2022-07-25T13:05:47.836Z,33.46
2022-07-25T13:08:29.572Z,33.29
2022-07-25T13:11:09.308Z,33.01
2022-07-25T13:13:48.822Z,32.98
2022-07-25T13:16:28.737Z,32.86
2022-07-25T13:19:08.815Z,32.88
2022-07-25T13:21:50.835Z,32.92
2022-07-25T13:24:31.304Z,33.01
2022-07-25T13:27:11.324Z,33.36
2022-07-25T13:29:54.305Z,33.58
2022-07-25T13:32:54.670Z,33.61
2022-07-25T13:35:38.876Z,33.76
2022-07-25T13:38:19.127Z,34.15
2022-07-25T13:40:59.284Z,34.38
2022-07-25T13:43:42.805Z,34.58
2022-07-25T13:46:23.443Z,34.80
2022-07-25T13:49:05.500Z,35.03
2022-07-25T13:51:46.356Z,35.23
2022-07-25T13:54:25.984Z,35.32
2022-07-25T13:57:05.849Z,35.24
2022-07-25T13:59:45.565Z,35.20
2022-07-25T14:02:25.561Z,35.02
2022-07-25T14:05:04.522Z,34.90
2022-07-25T14:07:45.061Z,34.82
2022-07-25T14:10:24.791Z,34.95
2022-07-25T14:13:04.644Z,34.75
2022-07-25T14:15:45.762Z,34.78
2022-07-25T14:18:27.857Z,34.63
2022-07-25T14:21:07.295Z,34.63
2022-07-25T14:23:47.090Z,34.58
2022-07-25T14:26:28.186Z,34.39
2022-07-25T14:29:11.269Z,34.21
2022-07-25T14:31:51.402Z,33.98
2022-07-25T14:34:31.073Z,33.93
2022-07-25T14:37:10.936Z,33.57
2022-07-25T14:39:50.934Z,33.68
2022-07-25T14:42:33.728Z,33.76
2022-07-25T14:45:14.471Z,33.75
2022-07-25T14:47:55.200Z,33.62
2022-07-25T14:50:46.632Z,33.59
2022-07-25T14:53:26.692Z,33.33
2022-07-25T14:56:07.197Z,33.02
2022-07-25T14:58:47.549Z,33.02
2022-07-25T15:01:27.479Z,32.90
2022-07-25T15:04:07.431Z,32.86
2022-07-25T15:06:47.022Z,32.97
2022-07-25T15:09:26.882Z,32.89
2022-07-25T15:12:07.438Z,32.84
2022-07-25T15:14:48.159Z,32.58
2022-07-25T15:17:30.680Z,32.41
2022-07-25T15:20:12.126Z,32.55
2022-07-25T15:23:11.868Z,32.54
2022-07-25T15:26:05.301Z,32.55
2022-07-25T15:28:45.477Z,32.42
2022-07-25T15:31:26.284Z,32.29
2022-07-25T15:34:06.639Z,32.16
2022-07-25T15:36:46.513Z,32.12
2022-07-25T15:39:28.854Z,31.85
2022-07-25T15:42:11.297Z,31.83
2022-07-25T15:45:03.877Z,31.73
2022-07-25T15:48:12.885Z,31.56
2022-07-25T15:50:54.697Z,31.57
2022-07-25T15:53:35.033Z,31.46
2022-07-25T15:56:16.636Z,31.41
2022-07-25T15:58:57.825Z,31.46
2022-07-25T16:01:39.785Z,31.23
2022-07-25T16:04:22.946Z,31.21
2022-07-25T16:07:03.634Z,31.13
2022-07-25T16:09:43.173Z,31.03
2022-07-25T16:12:28.747Z,30.90
2022-07-25T16:15:10.467Z,30.63
2022-07-25T16:17:52.953Z,30.47
2022-07-25T16:20:32.458Z,30.49
2022-07-25T16:23:12.055Z,30.36
2022-07-25T16:25:50.616Z,30.33
2022-07-25T16:28:30.133Z,30.18
2022-07-25T16:31:12.036Z,30.03
2022-07-25T16:33:51.246Z,29.95
2022-07-25T16:36:33.104Z,29.78
2022-07-25T16:39:12.582Z,29.62
2022-07-25T16:41:52.626Z,29.61
2022-07-25T16:44:32.335Z,29.51
2022-07-25T16:47:11.876Z,29.33
2022-07-25T16:49:50.545Z,29.15
2022-07-25T16:52:33.148Z,29.06
2022-07-25T16:55:12.926Z,29.10
2022-07-25T16:57:54.980Z,29.07
2022-07-25T17:00:34.167Z,29.10
2022-07-25T17:03:12.967Z,29.09
2022-07-25T17:05:53.821Z,29.08
2022-07-25T17:08:46.651Z,29.09
2022-07-25T17:11:26.829Z,28.97
2022-07-25T17:14:06.605Z,28.91
2022-07-25T17:16:46.913Z,28.81
2022-07-25T17:19:27.202Z,28.67
2022-07-25T17:22:08.791Z,28.50
2022-07-25T17:24:48.995Z,28.37
2022-07-25T17:27:41.301Z,28.21
2022-07-25T17:30:37.008Z,28.05
2022-07-25T17:33:19.128Z,27.91
2022-07-25T17:36:00.748Z,27.75
2022-07-25T17:38:41.320Z,27.58
2022-07-25T17:41:20.999Z,27.51
2022-07-25T17:44:01.021Z,27.27
2022-07-25T17:46:40.804Z,27.14
2022-07-25T17:49:21.828Z,27.17
2022-07-25T17:52:01.877Z,27.05
2022-07-25T17:54:43.773Z,26.84
2022-07-25T17:57:23.349Z,26.65
2022-07-25T18:00:06.182Z,26.59
2022-07-25T18:02:52.406Z,26.51
2022-07-25T18:05:34.424Z,26.49
2022-07-25T18:08:15.046Z,26.36
2022-07-25T18:10:53.664Z,26.46
2022-07-25T18:13:34.296Z,26.41
2022-07-25T18:16:34.072Z,26.32
2022-07-25T18:19:12.364Z,26.32
2022-07-25T18:21:54.762Z,26.16
2022-07-25T18:24:34.811Z,26.08
2022-07-25T18:27:14.551Z,26.01
2022-07-25T18:29:54.404Z,25.96
2022-07-25T18:32:34.321Z,25.85
2022-07-25T18:35:14.169Z,25.75
2022-07-25T18:37:52.874Z,25.63
2022-07-25T18:40:33.808Z,25.58
2022-07-25T18:43:25.889Z,25.47
2022-07-25T18:46:07.130Z,25.42
2022-07-25T18:48:49.783Z,25.35
2022-07-25T18:51:29.444Z,25.29
2022-07-25T18:54:09.739Z,25.16
2022-07-25T18:56:50.668Z,25.13
2022-07-25T18:59:33.377Z,25.07
2022-07-25T19:02:13.691Z,24.97
2022-07-25T19:04:53.605Z,24.84
2022-07-25T19:07:36.162Z,24.76
2022-07-25T19:10:28.605Z,24.73
2022-07-25T19:13:15.211Z,24.64
2022-07-25T19:16:02.982Z,24.61
2022-07-25T19:18:43.566Z,24.53
2022-07-25T19:21:23.115Z,24.47
2022-07-25T19:24:05.852Z,24.43
2022-07-25T19:26:48.426Z,24.36
2022-07-25T19:29:28.935Z,24.31
2022-07-25T19:32:22.429Z,24.29
2022-07-25T19:35:02.361Z,24.25
2022-07-25T19:37:41.786Z,24.19
2022-07-25T19:40:23.908Z,24.11
2022-07-25T19:43:04.557Z,24.05
2022-07-25T19:45:44.478Z,24.00
2022-07-25T19:48:24.474Z,23.95
2022-07-25T19:51:02.719Z,23.94
2022-07-25T19:53:42.217Z,23.86
2022-07-25T19:56:21.952Z,23.80
2022-07-25T19:59:02.102Z,23.75
2022-07-25T20:01:41.603Z,23.72
2022-07-25T20:04:21.524Z,23.68
2022-07-25T20:07:02.250Z,23.63
2022-07-25T20:09:42.632Z,23.61
2022-07-25T20:12:24.808Z,23.56
2022-07-25T20:15:08.166Z,23.54
2022-07-25T20:17:48.425Z,23.39
2022-07-25T20:20:28.472Z,23.38
2022-07-25T20:23:08.276Z,23.33
2022-07-25T20:25:47.837Z,23.30
2022-07-25T20:28:27.628Z,23.28
2022-07-25T20:31:22.024Z,23.24
2022-07-25T20:34:04.463Z,23.20
2022-07-25T20:36:44.848Z,23.18
2022-07-25T20:39:28.806Z,23.15
2022-07-25T20:42:09.414Z,23.09
2022-07-25T20:45:12.899Z,23.09
2022-07-25T20:47:52.403Z,23.05
2022-07-25T20:50:32.527Z,22.99
2022-07-25T20:53:12.144Z,22.96
2022-07-25T20:55:51.989Z,22.84
2022-07-25T20:58:32.275Z,22.86
2022-07-25T21:01:15.137Z,22.75
2022-07-25T21:03:53.336Z,22.65
2022-07-25T21:06:35.041Z,22.61
2022-07-25T21:09:17.437Z,22.51
2022-07-25T21:11:56.077Z,22.47
2022-07-25T21:14:35.421Z,22.44
2022-07-25T21:17:13.969Z,22.39
2022-07-25T21:20:35.556Z,22.24
2022-07-25T21:23:15.452Z,22.20
2022-07-25T21:25:57.171Z,22.16
2022-07-25T21:28:36.595Z,22.10
2022-07-25T21:31:27.154Z,22.08
2022-07-25T21:34:07.588Z,22.02
2022-07-25T21:36:47.367Z,21.98
2022-07-25T21:39:41.644Z,21.96
2022-07-25T21:42:21.922Z,21.97
2022-07-25T21:45:00.500Z,21.97
2022-07-25T21:47:39.956Z,21.96
2022-07-25T21:50:45.689Z,21.95
2022-07-25T21:53:38.555Z,21.93
2022-07-25T21:56:20.880Z,21.99
2022-07-25T21:59:01.356Z,21.98
2022-07-25T22:01:43.272Z,21.96
2022-07-25T22:04:22.648Z,21.94
2022-07-25T22:07:02.352Z,21.87
2022-07-25T22:09:54.767Z,21.85
2022-07-25T22:12:35.476Z,21.83
2022-07-25T22:15:15.668Z,21.75
2022-07-25T22:17:55.059Z,21.75
2022-07-25T22:20:37.658Z,21.82
2022-07-25T22:23:17.789Z,21.81
2022-07-25T22:25:59.590Z,21.79
2022-07-25T22:28:39.008Z,21.77
2022-07-25T22:31:20.860Z,21.66
2022-07-25T22:34:00.235Z,21.59
2022-07-25T22:36:40.212Z,21.62
2022-07-25T22:39:19.983Z,21.53
2022-07-25T22:41:59.744Z,21.52
2022-07-25T22:44:39.631Z,21.44
2022-07-25T22:47:19.974Z,21.40
2022-07-25T22:50:02.752Z,21.35
2022-07-25T22:52:42.095Z,21.25
2022-07-25T22:55:21.965Z,21.22
2022-07-25T22:58:01.691Z,21.11
2022-07-25T23:00:41.520Z,21.12
2022-07-25T23:03:21.369Z,21.04
2022-07-25T23:06:03.242Z,21.04
2022-07-25T23:08:42.525Z,21.01
2022-07-25T23:11:22.393Z,20.98
2022-07-25T23:14:02.182Z,20.98
2022-07-25T23:16:42.107Z,21.01
2022-07-25T23:19:34.372Z,20.95
2022-07-25T23:22:15.499Z,20.90
2022-07-25T23:24:54.904Z,20.91
2022-07-25T23:27:35.133Z,20.84
2022-07-25T23:30:16.982Z,20.93
2022-07-25T23:32:59.373Z,20.92
2022-07-25T23:35:38.852Z,20.95
2022-07-25T23:38:20.585Z,20.96
2022-07-25T23:41:02.001Z,20.97
2022-07-25T23:43:57.759Z,21.00
2022-07-25T23:46:40.520Z,20.96
2022-07-25T23:49:20.515Z,20.91
2022-07-25T23:52:00.103Z,20.92
2022-07-25T23:54:41.863Z,20.84
2022-07-25T23:57:21.636Z,20.94
